createdAt,value
2018-11-12T00:01:34.034Z,5.13
2018-11-12T00:04:01.462Z,6.53
2018-11-12T00:06:28.685Z,4.70
2018-11-12T00:08:55.899Z,5.60
2018-11-12T00:11:23.115Z,4.70
2018-11-12T00:13:50.398Z,4.73
2018-11-12T00:16:17.610Z,5.10
2018-11-12T00:18:44.893Z,5.13
2018-11-12T00:21:12.147Z,6.13
2018-11-12T00:23:39.415Z,5.90
2018-11-12T00:26:06.890Z,5.60
2018-11-12T00:28:34.124Z,4.73
2018-11-12T00:31:01.366Z,4.27
2018-11-12T00:33:28.612Z,4.30
2018-11-12T00:35:55.866Z,4.40
2018-11-12T00:38:23.117Z,5.93
2018-11-12T00:40:50.372Z,5.97
2018-11-12T00:43:17.699Z,4.37
2018-11-12T00:45:44.951Z,3.93
2018-11-12T00:48:12.227Z,4.53
2018-11-12T00:50:39.483Z,3.73
2018-11-12T00:53:06.842Z,5.40
2018-11-12T00:55:34.023Z,4.40
2018-11-12T00:58:01.238Z,5.47
2018-11-12T01:00:28.475Z,4.57
2018-11-12T01:02:55.705Z,4.23
2018-11-12T01:05:22.943Z,4.90
2018-11-12T01:07:50.161Z,6.43
2018-11-12T01:10:18.214Z,5.37
2018-11-12T01:12:45.876Z,5.63
2018-11-12T01:15:16.273Z,5.37
2018-11-12T01:17:43.751Z,5.03
2018-11-12T01:23:07.021Z,3.93
2018-11-12T01:25:34.365Z,5.23
2018-11-12T01:28:01.611Z,4.53
2018-11-12T01:30:29.001Z,5.43
2018-11-12T01:32:56.621Z,4.23
2018-11-12T01:35:23.844Z,5.93
2018-11-12T01:37:51.020Z,6.23
2018-11-12T01:40:18.275Z,4.47
2018-11-12T01:42:45.635Z,4.90
2018-11-12T01:45:15.006Z,4.40
2018-11-12T01:47:44.312Z,6.70
2018-11-12T01:50:12.354Z,6.30
2018-11-12T01:52:39.918Z,4.63
2018-11-12T01:55:08.597Z,6.73
2018-11-12T01:57:35.919Z,8.77
2018-11-12T02:00:03.411Z,6.37
2018-11-12T02:02:30.635Z,7.37
2018-11-12T02:04:58.028Z,6.90
2018-11-12T02:07:25.322Z,9.47
2018-11-12T02:09:52.640Z,7.40
2018-11-12T02:12:19.864Z,7.00
2018-11-12T02:14:47.190Z,6.43
2018-11-12T02:17:14.400Z,9.83
2018-11-12T02:19:41.622Z,11.53
2018-11-12T02:22:08.853Z,7.17
2018-11-12T02:24:36.128Z,8.80
2018-11-12T02:27:03.416Z,6.17
2018-11-12T02:29:30.686Z,7.33
2018-11-12T02:31:57.948Z,7.63
2018-11-12T02:34:25.181Z,8.70
2018-11-12T02:36:53.482Z,7.17
2018-11-12T02:39:20.791Z,8.80
2018-11-12T02:41:48.049Z,9.10
2018-11-12T02:44:15.322Z,7.50
2018-11-12T02:46:42.553Z,8.67
2018-11-12T02:49:09.805Z,8.37
2018-11-12T02:51:37.056Z,7.10
2018-11-12T02:54:04.604Z,7.17
2018-11-12T02:56:32.321Z,6.93
2018-11-12T02:58:59.563Z,8.23
2018-11-12T03:01:26.859Z,11.30
2018-11-12T03:03:54.196Z,8.13
2018-11-12T03:06:21.710Z,8.57
2018-11-12T03:08:49.582Z,8.63
2018-11-12T03:11:16.859Z,7.93
2018-11-12T03:13:44.084Z,7.70
2018-11-12T03:16:11.346Z,9.43
2018-11-12T03:18:38.642Z,8.07
2018-11-12T03:21:06.106Z,8.30
2018-11-12T03:23:33.313Z,9.80
2018-11-12T03:26:00.601Z,9.60
2018-11-12T03:28:27.802Z,9.00
2018-11-12T03:30:55.090Z,6.97
2018-11-12T03:33:22.354Z,7.23
2018-11-12T03:35:49.604Z,7.80
2018-11-12T03:38:16.821Z,6.67
2018-11-12T03:40:44.051Z,6.10
2018-11-12T03:43:11.270Z,6.83
2018-11-12T03:45:38.586Z,6.43
2018-11-12T03:48:05.816Z,6.70
2018-11-12T03:50:33.054Z,4.93
2018-11-12T03:53:00.262Z,6.30
2018-11-12T03:55:27.490Z,7.80
2018-11-12T03:57:54.785Z,4.67
2018-11-12T04:00:27.409Z,6.37
2018-11-12T04:02:54.601Z,5.83
2018-11-12T04:05:21.797Z,9.27
2018-11-12T04:07:49.073Z,4.93
2018-11-12T04:10:17.560Z,4.43
2018-11-12T04:12:44.840Z,3.07
2018-11-12T04:15:13.997Z,5.00
2018-11-12T04:17:42.508Z,4.27
2018-11-12T04:20:12.343Z,3.60
2018-11-12T04:22:41.564Z,3.83
2018-11-12T04:25:10.303Z,4.13
2018-11-12T04:27:37.766Z,4.07
2018-11-12T04:30:08.405Z,3.43
2018-11-12T04:32:35.625Z,5.13
2018-11-12T04:35:02.877Z,4.13
2018-11-12T04:37:30.131Z,3.37
2018-11-12T04:39:57.333Z,2.17
2018-11-12T04:42:25.191Z,2.33
2018-11-12T04:44:52.465Z,2.57
2018-11-12T04:47:19.760Z,2.50
2018-11-12T04:49:47.035Z,2.93
2018-11-12T04:52:14.278Z,1.97
2018-11-12T04:54:41.544Z,4.60
2018-11-12T04:57:08.979Z,1.67
2018-11-12T04:59:36.237Z,2.13
2018-11-12T05:02:04.237Z,2.80
2018-11-12T05:04:31.883Z,2.97
2018-11-12T05:06:59.103Z,4.30
2018-11-12T05:09:26.396Z,1.80
2018-11-12T05:11:53.612Z,1.30
2018-11-12T05:14:20.866Z,1.43
2018-11-12T05:16:48.270Z,1.73
2018-11-12T05:19:15.748Z,1.93
2018-11-12T05:21:42.960Z,1.80
2018-11-12T05:24:10.320Z,2.77
2018-11-12T05:26:37.565Z,2.13
2018-11-12T05:29:04.875Z,3.70
2018-11-12T05:31:32.217Z,2.00
2018-11-12T05:33:59.469Z,1.97
2018-11-12T05:36:26.709Z,1.63
2018-11-12T05:38:54.021Z,2.57
2018-11-12T05:41:21.377Z,3.77
2018-11-12T05:43:48.748Z,3.03
2018-11-12T05:46:15.928Z,2.83
2018-11-12T05:48:43.180Z,1.70
2018-11-12T05:51:10.450Z,3.70
2018-11-12T05:53:37.652Z,1.47
2018-11-12T05:56:05.373Z,1.63
2018-11-12T05:58:32.652Z,1.70
2018-11-12T06:00:59.958Z,1.23
2018-11-12T06:03:27.252Z,1.10
2018-11-12T06:05:54.496Z,1.57
2018-11-12T06:08:21.875Z,1.30
2018-11-12T06:10:49.282Z,2.87
2018-11-12T06:13:16.637Z,1.63
2018-11-12T06:15:43.999Z,1.77
2018-11-12T06:18:11.600Z,1.80
2018-11-12T06:20:39.046Z,1.03
2018-11-12T06:23:06.495Z,1.40
2018-11-12T06:25:35.043Z,1.63
2018-11-12T06:28:04.156Z,2.80
2018-11-12T06:30:32.979Z,1.63
2018-11-12T06:33:00.370Z,5.33
2018-11-12T06:35:27.876Z,1.23
2018-11-12T06:37:55.836Z,1.30
2018-11-12T06:40:26.202Z,1.20
2018-11-12T06:42:55.167Z,1.83
2018-11-12T06:45:25.462Z,2.10
2018-11-12T06:47:53.980Z,1.50
2018-11-12T06:50:22.676Z,3.00
2018-11-12T06:52:50.886Z,1.20
2018-11-12T06:55:19.709Z,1.33
2018-11-12T06:57:48.694Z,1.27
2018-11-12T07:00:22.402Z,1.50
2018-11-12T07:02:50.281Z,1.90
2018-11-12T07:05:18.754Z,2.60
2018-11-12T07:07:46.228Z,1.20
2018-11-12T07:10:14.952Z,1.93
2018-11-12T07:12:43.521Z,2.10
2018-11-12T07:15:12.393Z,1.43
2018-11-12T07:17:39.930Z,3.70
2018-11-12T07:20:09.997Z,1.87
2018-11-12T07:22:37.677Z,2.13
2018-11-12T07:25:06.304Z,3.13
2018-11-12T07:27:35.358Z,1.20
2018-11-12T07:30:04.496Z,1.97
2018-11-12T07:32:31.919Z,1.20
2018-11-12T07:34:59.422Z,1.03
2018-11-12T07:37:26.797Z,2.17
2018-11-12T07:39:54.135Z,1.27
2018-11-12T07:42:21.570Z,1.70
2018-11-12T07:44:48.934Z,1.73
2018-11-12T07:47:16.369Z,1.00
2018-11-12T07:49:43.771Z,1.43
2018-11-12T07:52:11.251Z,1.17
2018-11-12T07:54:38.742Z,3.17
2018-11-12T07:57:06.182Z,2.10
2018-11-12T07:59:33.711Z,1.73
2018-11-12T08:02:01.295Z,2.10
2018-11-12T08:04:29.080Z,1.83
2018-11-12T08:06:56.607Z,1.67
2018-11-12T08:09:24.267Z,1.17
2018-11-12T08:11:51.624Z,1.60
2018-11-12T08:14:19.213Z,1.70
2018-11-12T08:16:46.727Z,1.27
2018-11-12T08:19:14.082Z,1.00
2018-11-12T08:21:41.684Z,1.33
2018-11-12T08:24:09.147Z,1.87
2018-11-12T08:26:36.501Z,5.43
2018-11-12T08:29:04.133Z,2.60
2018-11-12T08:31:31.520Z,2.23
2018-11-12T08:33:58.893Z,1.20
2018-11-12T08:36:26.298Z,3.93
2018-11-12T08:38:53.660Z,1.83
2018-11-12T08:41:21.220Z,1.50
2018-11-12T08:43:49.000Z,2.17
2018-11-12T08:46:17.438Z,2.63
2018-11-12T08:48:45.068Z,3.63
2018-11-12T08:51:12.550Z,1.83
2018-11-12T08:53:39.902Z,1.20
2018-11-12T08:56:07.482Z,2.27
2018-11-12T08:58:35.761Z,4.40
2018-11-12T09:01:03.327Z,2.37
2018-11-12T09:03:32.250Z,3.40
2018-11-12T09:05:59.761Z,1.70
2018-11-12T09:08:27.681Z,3.30
2018-11-12T09:10:55.083Z,3.13
2018-11-12T09:13:22.538Z,1.70
2018-11-12T09:15:50.517Z,1.70
2018-11-12T09:18:17.997Z,1.77
2018-11-12T09:20:47.698Z,2.00
2018-11-12T09:23:15.356Z,1.97
2018-11-12T09:25:43.213Z,2.70
2018-11-12T09:28:11.455Z,3.63
2018-11-12T09:30:40.257Z,2.83
2018-11-12T09:33:07.556Z,1.40
2018-11-12T09:35:35.774Z,2.07
2018-11-12T09:38:04.175Z,2.43
2018-11-12T09:40:34.475Z,2.50
2018-11-12T09:43:15.953Z,2.17
2018-11-12T09:45:59.888Z,1.87
2018-11-12T09:48:41.908Z,4.53
2018-11-12T09:51:09.448Z,4.50
2018-11-12T09:53:41.715Z,1.93
2018-11-12T09:56:09.233Z,3.77
2018-11-12T09:58:37.422Z,1.93
2018-11-12T10:01:06.445Z,2.90
2018-11-12T10:03:35.160Z,2.17
2018-11-12T10:06:03.269Z,4.33
2018-11-12T10:08:35.337Z,1.80
2018-11-12T10:11:04.436Z,3.47
2018-11-12T10:13:31.789Z,2.73
2018-11-12T10:15:59.997Z,2.60
2018-11-12T10:18:26.342Z,3.60
2018-11-12T10:20:54.161Z,2.57
2018-11-12T10:23:23.253Z,1.70
2018-11-12T10:25:51.017Z,1.90
2018-11-12T10:28:20.566Z,3.20
2018-11-12T10:30:48.362Z,3.47
2018-11-12T10:33:29.900Z,2.53
2018-11-12T10:36:11.996Z,2.10
2018-11-12T10:38:52.971Z,3.23
2018-11-12T10:41:22.250Z,1.83
2018-11-12T10:43:51.995Z,1.70
2018-11-12T10:46:19.547Z,1.93
2018-11-12T10:48:47.042Z,2.70
2018-11-12T10:51:14.686Z,2.30
2018-11-12T10:53:50.041Z,3.57
2018-11-12T10:56:10.896Z,1.93
2018-11-12T10:58:38.829Z,2.10
2018-11-12T11:03:18.875Z,2.87
2018-11-12T11:05:48.400Z,1.77
2018-11-12T11:08:16.615Z,2.23
2018-11-12T11:10:44.064Z,4.60
2018-11-12T11:13:12.142Z,2.17
2018-11-12T11:15:40.268Z,2.57
2018-11-12T11:18:07.681Z,2.17
2018-11-12T11:20:35.119Z,2.40
2018-11-12T11:23:02.560Z,4.20
2018-11-12T11:25:30.358Z,1.57
2018-11-12T11:27:57.856Z,3.00
2018-11-12T11:30:25.347Z,2.90
2018-11-12T11:32:52.743Z,5.33
2018-11-12T11:35:21.046Z,1.33
2018-11-12T11:37:49.884Z,2.57
2018-11-12T11:40:18.793Z,2.37
2018-11-12T11:42:46.951Z,1.73
2018-11-12T11:45:15.231Z,1.67
2018-11-12T11:47:43.547Z,4.60
2018-11-12T11:50:13.755Z,2.00
2018-11-12T11:52:41.255Z,1.30
2018-11-12T11:55:12.252Z,2.43
2018-11-12T11:57:40.086Z,4.87
2018-11-12T12:00:11.847Z,2.60
2018-11-12T12:02:39.508Z,2.10
2018-11-12T12:05:08.342Z,1.57
2018-11-12T12:07:35.800Z,4.47
2018-11-12T12:10:03.350Z,1.63
2018-11-12T12:12:31.077Z,1.50
2018-11-12T12:14:58.812Z,1.67
2018-11-12T12:17:26.560Z,1.77
2018-11-12T12:19:54.060Z,1.30
2018-11-12T12:22:21.802Z,2.13
2018-11-12T12:24:49.529Z,2.77
2018-11-12T12:29:51.182Z,2.63
2018-11-12T12:32:18.662Z,2.47
2018-11-12T12:34:46.185Z,2.40
2018-11-12T12:37:13.922Z,1.17
2018-11-12T12:39:41.996Z,2.30
2018-11-12T12:42:10.000Z,2.63
2018-11-12T12:44:38.567Z,4.07
2018-11-12T12:47:06.185Z,1.97
2018-11-12T12:49:37.420Z,2.67
2018-11-12T12:52:06.171Z,1.97
2018-11-12T12:54:34.150Z,2.00
2018-11-12T12:57:02.915Z,3.30
2018-11-12T12:59:31.827Z,1.67
2018-11-12T13:02:00.102Z,1.27
2018-11-12T13:04:27.363Z,3.53
2018-11-12T13:06:55.221Z,2.50
2018-11-12T13:09:23.665Z,1.90
2018-11-12T13:11:51.697Z,1.93
2018-11-12T13:14:20.600Z,1.47
2018-11-12T13:16:50.365Z,2.27
2018-11-12T13:19:18.826Z,2.03
2018-11-12T13:21:47.076Z,1.10
2018-11-12T13:24:16.109Z,1.40
2018-11-12T13:26:43.644Z,2.37
2018-11-12T13:29:11.574Z,2.60
2018-11-12T13:31:39.609Z,2.23
2018-11-12T13:34:07.580Z,3.70
2018-11-12T13:36:36.466Z,2.87
2018-11-12T13:39:07.808Z,2.17
2018-11-12T13:41:35.541Z,5.20
2018-11-12T13:44:03.505Z,2.53
2018-11-12T13:46:36.575Z,3.27
2018-11-12T13:49:09.661Z,2.70
2018-11-12T13:51:40.111Z,6.80
2018-11-12T13:54:13.796Z,3.90
2018-11-12T13:56:55.955Z,2.73
2018-11-12T13:59:37.232Z,3.27
2018-11-12T14:02:04.650Z,4.97
2018-11-12T14:04:32.026Z,3.57
2018-11-12T14:07:01.603Z,2.67
2018-11-12T14:09:30.199Z,4.23
2018-11-12T14:11:57.682Z,3.63
2018-11-12T14:14:25.044Z,3.23
2018-11-12T14:16:52.484Z,3.50
2018-11-12T14:19:19.866Z,2.90
2018-11-12T14:21:52.910Z,3.37
2018-11-12T14:24:25.421Z,3.57
2018-11-12T14:27:00.302Z,4.50
2018-11-12T14:29:32.522Z,3.90
2018-11-12T14:32:05.027Z,3.77
2018-11-12T14:34:39.030Z,3.50
2018-11-12T14:37:13.563Z,3.70
2018-11-12T14:39:41.090Z,3.30
2018-11-12T14:42:11.666Z,4.33
2018-11-12T14:44:39.562Z,3.67
2018-11-12T14:47:06.866Z,4.97
2018-11-12T14:49:35.030Z,3.70
2018-11-12T14:52:06.951Z,4.57
2018-11-12T14:54:35.909Z,5.40
2018-11-12T14:57:06.027Z,4.20
2018-11-12T14:59:33.994Z,4.30
2018-11-12T15:02:02.380Z,5.00
2018-11-12T15:04:30.595Z,4.77
2018-11-12T15:07:00.810Z,6.37
2018-11-12T15:09:29.251Z,4.00
2018-11-12T15:12:02.751Z,5.13
2018-11-12T15:14:30.589Z,4.00
2018-11-12T15:16:58.118Z,2.97
2018-11-12T15:19:26.530Z,5.33
2018-11-12T15:21:56.184Z,5.67
2018-11-12T15:24:24.402Z,4.63
2018-11-12T15:26:52.098Z,4.53
2018-11-12T15:29:19.517Z,5.07
2018-11-12T15:31:48.237Z,3.40
2018-11-12T15:34:18.131Z,4.33
2018-11-12T15:36:45.854Z,4.10
2018-11-12T15:39:13.180Z,9.10
2018-11-12T15:41:40.696Z,7.10
2018-11-12T15:44:08.123Z,4.00
2018-11-12T15:46:35.558Z,3.67
2018-11-12T15:49:03.299Z,4.30
2018-11-12T15:51:30.720Z,5.03
2018-11-12T15:54:03.783Z,5.73
2018-11-12T15:56:35.158Z,4.20
2018-11-12T15:59:08.083Z,5.00
2018-11-12T16:01:38.774Z,5.87
2018-11-12T16:04:19.731Z,3.90
2018-11-12T16:07:02.657Z,6.13
2018-11-12T16:09:43.788Z,4.60
2018-11-12T16:12:26.298Z,5.20
2018-11-12T16:14:53.913Z,3.77
2018-11-12T16:17:21.844Z,4.13
2018-11-12T16:19:49.129Z,4.83
2018-11-12T16:22:16.853Z,4.47
2018-11-12T16:24:44.276Z,3.70
2018-11-12T16:27:11.492Z,3.37
2018-11-12T16:29:38.760Z,3.37
2018-11-12T16:32:06.009Z,3.93
2018-11-12T16:34:33.847Z,3.47
2018-11-12T16:37:01.061Z,4.23
2018-11-12T16:39:28.360Z,3.90
2018-11-12T16:41:55.623Z,3.80
2018-11-12T16:44:22.921Z,3.87
2018-11-12T16:46:50.436Z,3.33
2018-11-12T16:49:19.034Z,3.33
2018-11-12T16:51:47.085Z,4.00
2018-11-12T16:54:14.364Z,5.73
2018-11-12T16:56:41.608Z,6.20
2018-11-12T16:59:08.914Z,3.37
2018-11-12T17:01:36.273Z,4.57
2018-11-12T17:04:04.601Z,4.07
2018-11-12T17:06:31.847Z,5.30
2018-11-12T17:08:59.076Z,3.23
2018-11-12T17:11:26.369Z,5.60
2018-11-12T17:13:53.633Z,3.27
2018-11-12T17:16:20.885Z,3.90
2018-11-12T17:18:48.248Z,4.57
2018-11-12T17:21:15.531Z,5.10
2018-11-12T17:23:42.738Z,4.20
2018-11-12T17:26:10.215Z,4.70
2018-11-12T17:28:37.455Z,3.97
2018-11-12T17:31:04.992Z,3.90
2018-11-12T17:33:32.307Z,4.97
2018-11-12T17:35:59.568Z,6.27
2018-11-12T17:38:26.815Z,4.43
2018-11-12T17:40:54.330Z,4.93
2018-11-12T17:43:21.713Z,4.43
2018-11-12T17:45:48.917Z,4.10
2018-11-12T17:48:16.147Z,3.10
2018-11-12T17:50:43.414Z,3.50
2018-11-12T17:53:10.634Z,5.17
2018-11-12T17:55:37.898Z,3.13
2018-11-12T17:58:06.189Z,3.63
2018-11-12T18:00:34.846Z,4.07
2018-11-12T18:03:02.370Z,3.67
2018-11-12T18:05:29.688Z,5.40
2018-11-12T18:07:57.075Z,4.27
2018-11-12T18:10:24.357Z,3.60
2018-11-12T18:12:51.661Z,3.77
2018-11-12T18:15:20.050Z,3.23
2018-11-12T18:17:47.420Z,4.00
2018-11-12T18:20:17.119Z,3.30
2018-11-12T18:22:44.487Z,5.60
2018-11-12T18:25:12.835Z,3.43
2018-11-12T18:27:40.270Z,3.30
2018-11-12T18:30:17.232Z,4.90
2018-11-12T18:32:45.323Z,5.13
2018-11-12T18:35:12.738Z,3.20
2018-11-12T18:37:40.548Z,4.50
2018-11-12T18:40:09.620Z,3.87
2018-11-12T18:42:37.094Z,3.57
2018-11-12T18:45:06.090Z,3.70
2018-11-12T18:47:33.528Z,3.00
2018-11-12T18:50:01.106Z,3.87
2018-11-12T18:52:28.721Z,3.70
2018-11-12T18:54:56.360Z,7.03
2018-11-12T18:57:23.858Z,3.93
2018-11-12T18:59:51.214Z,3.60
2018-11-12T19:02:18.653Z,2.60
2018-11-12T19:04:45.984Z,3.00
2018-11-12T19:07:13.329Z,4.53
2018-11-12T19:09:40.668Z,3.37
2018-11-12T19:12:08.182Z,7.27
2018-11-12T19:14:36.068Z,3.87
2018-11-12T19:17:03.474Z,6.90
2018-11-12T19:19:31.505Z,3.93
2018-11-12T19:21:59.032Z,3.23
2018-11-12T19:24:27.232Z,3.63
2018-11-12T19:26:54.810Z,2.60
2018-11-12T19:29:22.219Z,4.50
2018-11-12T19:31:49.926Z,2.20
2018-11-12T19:34:19.061Z,4.67
2018-11-12T19:36:46.756Z,4.73
2018-11-12T19:39:14.120Z,3.33
2018-11-12T19:41:42.051Z,2.47
2018-11-12T19:44:09.451Z,3.03
2018-11-12T19:46:37.256Z,4.20
2018-11-12T19:49:04.893Z,4.37
2018-11-12T19:51:32.359Z,3.03
2018-11-12T19:54:00.506Z,4.50
2018-11-12T19:56:28.207Z,3.50
2018-11-12T19:58:55.501Z,2.97
2018-11-12T20:01:23.220Z,3.40
2018-11-12T20:03:50.947Z,3.13
2018-11-12T20:06:18.267Z,5.40
2018-11-12T20:08:45.848Z,4.73
2018-11-12T20:11:14.057Z,4.53
2018-11-12T20:13:43.282Z,3.30
2018-11-12T20:16:11.428Z,3.13
2018-11-12T20:18:40.264Z,2.20
2018-11-12T20:21:07.909Z,3.60
2018-11-12T20:23:35.340Z,3.30
2018-11-12T20:26:03.020Z,2.77
2018-11-12T20:28:31.170Z,3.50
2018-11-12T20:30:58.458Z,3.13
2018-11-12T20:33:25.821Z,4.10
2018-11-12T20:35:58.560Z,3.07
2018-11-12T20:38:34.143Z,2.50
2018-11-12T20:41:01.723Z,2.53
2018-11-12T20:46:18.039Z,2.20
2018-11-12T20:48:51.507Z,2.80
2018-11-12T20:51:20.937Z,2.47
2018-11-12T20:53:54.224Z,1.83
2018-11-12T20:56:31.217Z,2.83
2018-11-12T20:58:58.589Z,4.40
2018-11-12T21:01:26.104Z,2.67
2018-11-12T21:03:55.859Z,3.47
2018-11-12T21:06:23.760Z,2.60
2018-11-12T21:08:55.614Z,4.27
2018-11-12T21:11:23.753Z,2.33
2018-11-12T21:13:51.116Z,2.77
2018-11-12T21:16:21.737Z,3.83
2018-11-12T21:18:52.525Z,3.07
2018-11-12T21:21:23.463Z,3.40
2018-11-12T21:23:53.858Z,3.20
2018-11-12T21:26:24.398Z,3.43
2018-11-12T21:28:53.910Z,4.10
2018-11-12T21:31:28.888Z,2.97
2018-11-12T21:34:04.344Z,2.80
2018-11-12T21:36:31.671Z,4.57
2018-11-12T21:38:59.039Z,2.87
2018-11-12T21:41:26.383Z,2.20
2018-11-12T21:43:53.728Z,3.93
2018-11-12T21:46:20.856Z,2.43
2018-11-12T21:48:48.097Z,5.50
2018-11-12T21:51:15.405Z,2.57
2018-11-12T21:53:42.661Z,4.97
2018-11-12T21:56:10.045Z,5.00
2018-11-12T21:58:37.283Z,2.73
2018-11-12T22:01:04.628Z,2.00
2018-11-12T22:03:31.877Z,2.57
2018-11-12T22:05:59.169Z,6.40
2018-11-12T22:08:26.461Z,3.53
2018-11-12T22:10:54.331Z,2.43
2018-11-12T22:13:21.581Z,5.10
2018-11-12T22:15:48.886Z,5.00
2018-11-12T22:18:16.147Z,2.93
2018-11-12T22:20:43.489Z,2.83
2018-11-12T22:23:10.772Z,2.50
2018-11-12T22:25:38.031Z,2.80
2018-11-12T22:28:05.358Z,3.17
2018-11-12T22:30:32.626Z,4.90
2018-11-12T22:32:59.827Z,2.33
2018-11-12T22:35:27.075Z,5.90
2018-11-12T22:37:54.324Z,3.27
2018-11-12T22:40:21.949Z,2.80
2018-11-12T22:42:50.172Z,3.00
2018-11-12T22:45:20.037Z,3.00
2018-11-12T22:47:47.749Z,4.07
2018-11-12T22:50:15.051Z,2.97
2018-11-12T22:52:43.058Z,3.83
2018-11-12T22:55:11.613Z,2.93
2018-11-12T22:57:38.969Z,2.97
2018-11-12T23:00:14.430Z,2.97
2018-11-12T23:02:41.681Z,3.33
2018-11-12T23:05:08.997Z,2.70
2018-11-12T23:07:36.221Z,2.70
2018-11-12T23:10:04.203Z,2.93
2018-11-12T23:12:32.713Z,5.20
2018-11-12T23:14:59.930Z,2.70
2018-11-12T23:17:27.144Z,4.03
2018-11-12T23:19:54.470Z,3.50
2018-11-12T23:22:21.717Z,2.60
2018-11-12T23:24:48.968Z,3.10
2018-11-12T23:27:16.270Z,2.53
2018-11-12T23:29:43.522Z,3.17
2018-11-12T23:32:10.840Z,3.50
2018-11-12T23:34:38.045Z,2.80
2018-11-12T23:37:05.343Z,4.37
2018-11-12T23:39:32.592Z,3.43
2018-11-12T23:41:59.925Z,3.10
2018-11-12T23:44:27.176Z,2.63
2018-11-12T23:46:54.524Z,4.07
2018-11-12T23:49:21.681Z,2.50
2018-11-12T23:51:48.932Z,4.30
2018-11-12T23:54:16.133Z,3.80
2018-11-12T23:56:43.349Z,4.27
2018-11-12T23:59:10.592Z,2.60
